Rechercher aéroport 
image banner adimage banner adimage banner ad
image banner ad

68CA - Lake California Air Park

Situé à Cottonwood, United States

ICAO - 68CA, IATA -

Données fournies par Airmate  

Information générale

Coordonnées: N40°21'40" W122°12'57"
Élévation : 615 feet MSL.
Variation magnétique : 17° East
Voir autres Aéroports à California

Données opérationnelles

Special qualification required
Heure actuelle UTC:
Heure actuelle locale:
Météo à : KRDD - Redding Muni ( 18 km )
METAR: KRDD 251453Z 00000KT 10SM FU CLR 23/11 A2990 RMK AO2 SLP118 T02280111 51009
TAF: KRDD 251120Z 2512/2612 VRB03KT P6SM SCT250 FM252200 18009KT P6SM SCT150 BKN250
Voir NOTAMs / SUP AIP / TFR affectant cet aéroport [VIEW]
Fréquences de communication: [VIEW]

Pistes:

Identifiant RWYQFULongueur (ft)Largeur (ft)SurfaceLDA (ft)
14300075ASPH
32300075ASPH

Coordonnées de l'aéroport

Adresse: Cottonwood United States

Vue satellite de 68CA